sensor_id;sensor_type;location;lat;lon;timestamp;pressure;altitude;pressure_sealevel;temperature;humidity
30636;BME280;17400;52.392;9.750;2023-03-25T00:01:13;99539.72;;;10.26;100.00
30636;BME280;17400;52.392;9.750;2023-03-25T00:03:43;99528.91;;;10.26;100.00
30636;BME280;17400;52.392;9.750;2023-03-25T00:06:16;99526.78;;;10.28;100.00
30636;BME280;17400;52.392;9.750;2023-03-25T00:08:44;99526.19;;;10.26;100.00
30636;BME280;17400;52.392;9.750;2023-03-25T00:11:12;99526.84;;;10.21;100.00
30636;BME280;17400;52.392;9.750;2023-03-25T00:13:40;99527.69;;;10.22;100.00
30636;BME280;17400;52.392;9.750;2023-03-25T00:16:08;99526.44;;;10.24;100.00
30636;BME280;17400;52.392;9.750;2023-03-25T00:18:36;99523.50;;;10.26;100.00
30636;BME280;17400;52.392;9.750;2023-03-25T00:21:07;99519.75;;;10.27;100.00
30636;BME280;17400;52.392;9.750;2023-03-25T00:23:38;99531.16;;;10.29;100.00
30636;BME280;17400;52.392;9.750;2023-03-25T00:26:06;99522.69;;;10.25;100.00
30636;BME280;17400;52.392;9.750;2023-03-25T00:28:36;99516.41;;;10.25;100.00
30636;BME280;17400;52.392;9.750;2023-03-25T00:31:06;99512.66;;;10.26;100.00
30636;BME280;17400;52.392;9.750;2023-03-25T00:33:34;99514.31;;;10.27;100.00
30636;BME280;17400;52.392;9.750;2023-03-25T00:36:03;99508.47;;;10.30;100.00
30636;BME280;17400;52.392;9.750;2023-03-25T00:38:33;99514.75;;;10.24;100.00
30636;BME280;17400;52.392;9.750;2023-03-25T00:41:11;99509.56;;;10.22;100.00
30636;BME280;17400;52.392;9.750;2023-03-25T00:43:39;99500.03;;;10.20;100.00
30636;BME280;17400;52.392;9.750;2023-03-25T00:46:09;99511.47;;;10.22;100.00
30636;BME280;17400;52.392;9.750;2023-03-25T00:48:37;99512.81;;;10.12;100.00
30636;BME280;17400;52.392;9.750;2023-03-25T00:51:05;99510.09;;;10.12;100.00
30636;BME280;17400;52.392;9.750;2023-03-25T00:53:36;99509.88;;;10.14;100.00
30636;BME280;17400;52.392;9.750;2023-03-25T00:56:05;99514.00;;;10.16;100.00
30636;BME280;17400;52.392;9.750;2023-03-25T00:58:33;99514.75;;;10.24;100.00
30636;BME280;17400;52.392;9.750;2023-03-25T01:01:07;99519.97;;;10.25;100.00
30636;BME280;17400;52.392;9.750;2023-03-25T01:03:36;99517.69;;;10.22;100.00
30636;BME280;17400;52.392;9.750;2023-03-25T01:06:08;99522.13;;;10.16;100.00
30636;BME280;17400;52.392;9.750;2023-03-25T01:08:41;99516.56;;;10.11;100.00
30636;BME280;17400;52.392;9.750;2023-03-25T01:11:17;99511.59;;;10.08;100.00
30636;BME280;17400;52.392;9.750;2023-03-25T01:13:45;99513.84;;;10.11;100.00
30636;BME280;17400;52.392;9.750;2023-03-25T01:16:12;99513.84;;;10.11;100.00
30636;BME280;17400;52.392;9.750;2023-03-25T01:18:40;99514.41;;;10.20;100.00
30636;BME280;17400;52.392;9.750;2023-03-25T01:21:08;99502.31;;;10.23;100.00
30636;BME280;17400;52.392;9.750;2023-03-25T01:23:36;99511.84;;;10.25;100.00
30636;BME280;17400;52.392;9.750;2023-03-25T01:26:05;99502.75;;;10.20;100.00
30636;BME280;17400;52.392;9.750;2023-03-25T01:28:33;99506.66;;;10.24;100.00
30636;BME280;17400;52.392;9.750;2023-03-25T01:31:02;99505.44;;;10.20;100.00
30636;BME280;17400;52.392;9.750;2023-03-25T01:33:30;99509.19;;;10.18;100.00
30636;BME280;17400;52.392;9.750;2023-03-25T01:35:59;99518.53;;;10.23;100.00
30636;BME280;17400;52.392;9.750;2023-03-25T01:38:29;99504.00;;;10.17;100.00
30636;BME280;17400;52.392;9.750;2023-03-25T01:40:57;99511.91;;;10.18;100.00
30636;BME280;17400;52.392;9.750;2023-03-25T01:43:26;99508.75;;;10.22;100.00
30636;BME280;17400;52.392;9.750;2023-03-25T01:45:54;99503.13;;;10.23;100.00
30636;BME280;17400;52.392;9.750;2023-03-25T01:48:25;99506.22;;;10.27;100.00
30636;BME280;17400;52.392;9.750;2023-03-25T01:51:01;99508.06;;;10.26;100.00
30636;BME280;17400;52.392;9.750;2023-03-25T01:53:31;99504.94;;;10.29;100.00
30636;BME280;17400;52.392;9.750;2023-03-25T01:56:00;99498.03;;;10.33;100.00
30636;BME280;17400;52.392;9.750;2023-03-25T01:58:32;99489.28;;;10.31;100.00
30636;BME280;17400;52.392;9.750;2023-03-25T02:01:02;99487.28;;;10.27;100.00
30636;BME280;17400;52.392;9.750;2023-03-25T02:03:30;99497.03;;;10.28;100.00
30636;BME280;17400;52.392;9.750;2023-03-25T02:06:04;99493.88;;;10.31;100.00
30636;BME280;17400;52.392;9.750;2023-03-25T02:08:35;99484.72;;;10.32;100.00
30636;BME280;17400;52.392;9.750;2023-03-25T02:11:05;99485.78;;;10.31;100.00
30636;BME280;17400;52.392;9.750;2023-03-25T02:13:37;99491.19;;;10.31;100.00
30636;BME280;17400;52.392;9.750;2023-03-25T02:16:17;99495.75;;;10.30;100.00
30636;BME280;17400;52.392;9.750;2023-03-25T02:18:55;99503.75;;;10.25;100.00
30636;BME280;17400;52.392;9.750;2023-03-25T02:21:56;99493.13;;;10.24;100.00
30636;BME280;17400;52.392;9.750;2023-03-25T02:25:12;99497.88;;;10.28;100.00
30636;BME280;17400;52.392;9.750;2023-03-25T02:27:52;99495.16;;;10.28;100.00
30636;BME280;17400;52.392;9.750;2023-03-25T02:30:37;99498.53;;;10.24;100.00
30636;BME280;17400;52.392;9.750;2023-03-25T02:33:32;99504.38;;;10.02;100.00
30636;BME280;17400;52.392;9.750;2023-03-25T02:39:12;99497.53;;;9.99;100.00
30636;BME280;17400;52.392;9.750;2023-03-25T02:41:46;99499.84;;;9.96;100.00
30636;BME280;17400;52.392;9.750;2023-03-25T02:44:22;99498.16;;;10.02;100.00
30636;BME280;17400;52.392;9.750;2023-03-25T02:46:55;99491.91;;;10.01;100.00
30636;BME280;17400;52.392;9.750;2023-03-25T02:49:27;99486.28;;;10.03;100.00
30636;BME280;17400;52.392;9.750;2023-03-25T02:51:59;99480.03;;;10.02;100.00
30636;BME280;17400;52.392;9.750;2023-03-25T02:54:30;99480.44;;;10.06;100.00
30636;BME280;17400;52.392;9.750;2023-03-25T02:57:00;99482.84;;;10.14;100.00
30636;BME280;17400;52.392;9.750;2023-03-25T02:59:30;99475.38;;;10.28;100.00
30636;BME280;17400;52.392;9.750;2023-03-25T03:02:01;99472.69;;;10.28;100.00
30636;BME280;17400;52.392;9.750;2023-03-25T03:04:30;99471.31;;;10.18;100.00
30636;BME280;17400;52.392;9.750;2023-03-25T03:06:58;99466.44;;;10.09;100.00
30636;BME280;17400;52.392;9.750;2023-03-25T03:09:35;99464.44;;;10.04;100.00
30636;BME280;17400;52.392;9.750;2023-03-25T03:12:27;99466.75;;;10.00;100.00
30636;BME280;17400;52.392;9.750;2023-03-25T03:15:07;99460.50;;;10.00;100.00
30636;BME280;17400;52.392;9.750;2023-03-25T03:17:41;99461.66;;;9.92;100.00
30636;BME280;17400;52.392;9.750;2023-03-25T03:20:18;99457.44;;;9.96;100.00
30636;BME280;17400;52.392;9.750;2023-03-25T03:22:58;99463.66;;;9.97;100.00
30636;BME280;17400;52.392;9.750;2023-03-25T03:25:35;99462.84;;;9.96;100.00
30636;BME280;17400;52.392;9.750;2023-03-25T03:28:08;99458.34;;;9.90;100.00
30636;BME280;17400;52.392;9.750;2023-03-25T03:30:43;99464.78;;;9.89;100.00
30636;BME280;17400;52.392;9.750;2023-03-25T03:33:16;99471.47;;;9.87;100.00
30636;BME280;17400;52.392;9.750;2023-03-25T03:35:49;99482.28;;;9.87;100.00
30636;BME280;17400;52.392;9.750;2023-03-25T03:38:24;99469.03;;;9.78;100.00
30636;BME280;17400;52.392;9.750;2023-03-25T03:40:57;99470.25;;;9.82;100.00
30636;BME280;17400;52.392;9.750;2023-03-25T03:43:30;99464.91;;;9.76;100.00
30636;BME280;17400;52.392;9.750;2023-03-25T03:46:03;99472.78;;;9.77;100.00
30636;BME280;17400;52.392;9.750;2023-03-25T03:48:35;99462.22;;;9.76;100.00
30636;BME280;17400;52.392;9.750;2023-03-25T03:51:08;99473.69;;;9.71;100.00
30636;BME280;17400;52.392;9.750;2023-03-25T03:53:40;99472.69;;;9.65;100.00
30636;BME280;17400;52.392;9.750;2023-03-25T03:56:14;99474.91;;;9.75;100.00
30636;BME280;17400;52.392;9.750;2023-03-25T03:58:50;99475.72;;;9.76;100.00
30636;BME280;17400;52.392;9.750;2023-03-25T04:01:27;99473.41;;;9.79;100.00
30636;BME280;17400;52.392;9.750;2023-03-25T04:04:02;99472.78;;;9.77;100.00
30636;BME280;17400;52.392;9.750;2023-03-25T04:06:35;99476.13;;;9.79;100.00
30636;BME280;17400;52.392;9.750;2023-03-25T04:09:10;99474.84;;;9.82;100.00
30636;BME280;17400;52.392;9.750;2023-03-25T04:11:49;99483.00;;;9.75;100.00
30636;BME280;17400;52.392;9.750;2023-03-25T04:14:20;99489.22;;;9.76;100.00
30636;BME280;17400;52.392;9.750;2023-03-25T04:16:48;99479.41;;;9.81;100.00
30636;BME280;17400;52.392;9.750;2023-03-25T04:19:19;99478.03;;;9.72;100.00
30636;BME280;17400;52.392;9.750;2023-03-25T04:21:47;99480.78;;;9.65;100.00
30636;BME280;17400;52.392;9.750;2023-03-25T04:24:15;99487.03;;;9.66;100.00
30636;BME280;17400;52.392;9.750;2023-03-25T04:26:46;99483.13;;;9.62;100.00
30636;BME280;17400;52.392;9.750;2023-03-25T04:29:15;99494.00;;;9.55;100.00
30636;BME280;17400;52.392;9.750;2023-03-25T04:31:44;99494.38;;;9.59;100.00
30636;BME280;17400;52.392;9.750;2023-03-25T04:34:15;99483.44;;;9.47;100.00
30636;BME280;17400;52.392;9.750;2023-03-25T04:36:44;99487.63;;;9.43;100.00
30636;BME280;17400;52.392;9.750;2023-03-25T04:39:12;99488.91;;;9.40;100.00
30636;BME280;17400;52.392;9.750;2023-03-25T04:41:43;99488.03;;;9.46;100.00
30636;BME280;17400;52.392;9.750;2023-03-25T04:44:12;99485.22;;;9.60;100.00
30636;BME280;17400;52.392;9.750;2023-03-25T04:46:40;99483.78;;;9.57;100.00
30636;BME280;17400;52.392;9.750;2023-03-25T04:49:08;99481.69;;;9.59;100.00
30636;BME280;17400;52.392;9.750;2023-03-25T04:51:40;99487.69;;;9.61;100.00
30636;BME280;17400;52.392;9.750;2023-03-25T04:54:10;99486.88;;;9.61;100.00
30636;BME280;17400;52.392;9.750;2023-03-25T04:56:38;99485.97;;;9.67;100.00
30636;BME280;17400;52.392;9.750;2023-03-25T04:59:06;99480.38;;;9.69;100.00
30636;BME280;17400;52.392;9.750;2023-03-25T05:01:36;99475.44;;;9.59;100.00
30636;BME280;17400;52.392;9.750;2023-03-25T05:04:09;99490.22;;;9.56;100.00
30636;BME280;17400;52.392;9.750;2023-03-25T05:06:39;99485.72;;;9.50;100.00
30636;BME280;17400;52.392;9.750;2023-03-25T05:09:09;99486.81;;;9.42;100.00
30636;BME280;17400;52.392;9.750;2023-03-25T05:11:37;99489.28;;;9.44;100.00
30636;BME280;17400;52.392;9.750;2023-03-25T05:14:07;99495.09;;;9.47;100.00
30636;BME280;17400;52.392;9.750;2023-03-25T05:16:37;99498.84;;;9.46;100.00
30636;BME280;17400;52.392;9.750;2023-03-25T05:19:06;99502.13;;;9.48;100.00
30636;BME280;17400;52.392;9.750;2023-03-25T05:21:35;99483.31;;;9.35;100.00
30636;BME280;17400;52.392;9.750;2023-03-25T05:24:04;99493.25;;;9.41;100.00
30636;BME280;17400;52.392;9.750;2023-03-25T05:26:34;99493.63;;;9.20;100.00
30636;BME280;17400;52.392;9.750;2023-03-25T05:29:02;99499.03;;;9.20;100.00
30636;BME280;17400;52.392;9.750;2023-03-25T05:31:31;99501.69;;;9.26;100.00
30636;BME280;17400;52.392;9.750;2023-03-25T05:34:00;99491.13;;;9.25;100.00
30636;BME280;17400;52.392;9.750;2023-03-25T05:36:32;99494.41;;;9.27;100.00
30636;BME280;17400;52.392;9.750;2023-03-25T05:38:59;99502.28;;;9.28;100.00
30636;BME280;17400;52.392;9.750;2023-03-25T05:41:28;99506.91;;;9.21;100.00
30636;BME280;17400;52.392;9.750;2023-03-25T05:43:59;99505.25;;;9.20;100.00
30636;BME280;17400;52.392;9.750;2023-03-25T05:46:27;99509.00;;;9.19;100.00
30636;BME280;17400;52.392;9.750;2023-03-25T05:48:56;99508.00;;;9.13;100.00
30636;BME280;17400;52.392;9.750;2023-03-25T05:51:29;99499.44;;;9.16;100.00
30636;BME280;17400;52.392;9.750;2023-03-25T05:53:59;99504.09;;;9.09;100.00
30636;BME280;17400;52.392;9.750;2023-03-25T05:56:28;99502.88;;;9.05;100.00
30636;BME280;17400;52.392;9.750;2023-03-25T05:58:55;99502.88;;;9.05;100.00
30636;BME280;17400;52.392;9.750;2023-03-25T06:01:23;99498.72;;;9.03;100.00
30636;BME280;17400;52.392;9.750;2023-03-25T06:04:00;99504.56;;;8.93;100.00
30636;BME280;17400;52.392;9.750;2023-03-25T06:06:31;99500.63;;;8.95;100.00
30636;BME280;17400;52.392;9.750;2023-03-25T06:09:00;99507.41;;;9.05;100.00
30636;BME280;17400;52.392;9.750;2023-03-25T06:11:28;99506.16;;;9.07;100.00
30636;BME280;17400;52.392;9.750;2023-03-25T06:13:56;99504.25;;;9.14;100.00
30636;BME280;17400;52.392;9.750;2023-03-25T06:16:26;99499.22;;;9.18;100.00
30636;BME280;17400;52.392;9.750;2023-03-25T06:18:56;99507.38;;;9.11;100.00
30636;BME280;17400;52.392;9.750;2023-03-25T06:21:27;99507.72;;;9.22;100.00
30636;BME280;17400;52.392;9.750;2023-03-25T06:23:58;99506.91;;;9.21;100.00
30636;BME280;17400;52.392;9.750;2023-03-25T06:26:27;99508.78;;;9.21;100.00
30636;BME280;17400;52.392;9.750;2023-03-25T06:28:54;99500.78;;;9.32;100.00
30636;BME280;17400;52.392;9.750;2023-03-25T06:31:24;99496.25;;;9.33;100.00
30636;BME280;17400;52.392;9.750;2023-03-25T06:33:54;99498.03;;;9.39;100.00
30636;BME280;17400;52.392;9.750;2023-03-25T06:36:22;99503.03;;;9.42;100.00
30636;BME280;17400;52.392;9.750;2023-03-25T06:38:52;99503.25;;;9.41;100.00
30636;BME280;17400;52.392;9.750;2023-03-25T06:41:21;99502.34;;;9.47;100.00
30636;BME280;17400;52.392;9.750;2023-03-25T06:43:51;99510.50;;;9.40;100.00
30636;BME280;17400;52.392;9.750;2023-03-25T06:46:18;99516.88;;;9.53;100.00
30636;BME280;17400;52.392;9.750;2023-03-25T06:48:46;99513.59;;;9.44;100.00
30636;BME280;17400;52.392;9.750;2023-03-25T06:51:15;99513.00;;;9.42;100.00
30636;BME280;17400;52.392;9.750;2023-03-25T06:53:42;99502.41;;;9.40;100.00
30636;BME280;17400;52.392;9.750;2023-03-25T06:56:11;99515.69;;;9.42;100.00
30636;BME280;17400;52.392;9.750;2023-03-25T06:58:40;99512.94;;;9.48;100.00
30636;BME280;17400;52.392;9.750;2023-03-25T07:01:08;99512.94;;;9.48;100.00
30636;BME280;17400;52.392;9.750;2023-03-25T07:03:36;99515.81;;;9.54;100.00
30636;BME280;17400;52.392;9.750;2023-03-25T07:06:05;99516.19;;;9.57;100.00
30636;BME280;17400;52.392;9.750;2023-03-25T07:08:33;99518.69;;;9.59;100.00
30636;BME280;17400;52.392;9.750;2023-03-25T07:11:02;99513.91;;;9.61;100.00
30636;BME280;17400;52.392;9.750;2023-03-25T07:13:30;99515.09;;;9.65;100.00
30636;BME280;17400;52.392;9.750;2023-03-25T07:16:00;99512.19;;;9.66;100.00
30636;BME280;17400;52.392;9.750;2023-03-25T07:18:29;99521.44;;;9.77;100.00
30636;BME280;17400;52.392;9.750;2023-03-25T07:20:58;99521.44;;;9.77;100.00
30636;BME280;17400;52.392;9.750;2023-03-25T07:23:26;99520.97;;;9.87;100.00
30636;BME280;17400;52.392;9.750;2023-03-25T07:25:54;99520.72;;;9.89;100.00
30636;BME280;17400;52.392;9.750;2023-03-25T07:28:24;99518.72;;;10.03;100.00
30636;BME280;17400;52.392;9.750;2023-03-25T07:30:52;99519.72;;;10.08;100.00
30636;BME280;17400;52.392;9.750;2023-03-25T07:33:21;99514.38;;;10.02;100.00
30636;BME280;17400;52.392;9.750;2023-03-25T07:35:48;99520.44;;;9.97;100.00
30636;BME280;17400;52.392;9.750;2023-03-25T07:38:17;99519.84;;;9.95;100.00
30636;BME280;17400;52.392;9.750;2023-03-25T07:40:45;99532.47;;;10.01;100.00
30636;BME280;17400;52.392;9.750;2023-03-25T07:43:16;99538.50;;;10.03;100.00
30636;BME280;17400;52.392;9.750;2023-03-25T07:45:44;99541.09;;;9.91;100.00
30636;BME280;17400;52.392;9.750;2023-03-25T07:48:12;99539.66;;;9.89;100.00
30636;BME280;17400;52.392;9.750;2023-03-25T07:50:43;99538.56;;;9.71;100.00
30636;BME280;17400;52.392;9.750;2023-03-25T07:53:12;99547.44;;;9.78;100.00
30636;BME280;17400;52.392;9.750;2023-03-25T07:55:40;99552.22;;;9.76;100.00
30636;BME280;17400;52.392;9.750;2023-03-25T07:58:08;99541.56;;;9.81;100.00
30636;BME280;17400;52.392;9.750;2023-03-25T08:00:36;99543.47;;;9.81;100.00
30636;BME280;17400;52.392;9.750;2023-03-25T08:03:04;99540.09;;;9.86;100.00
30636;BME280;17400;52.392;9.750;2023-03-25T08:05:34;99526.25;;;10.00;100.00
30636;BME280;17400;52.392;9.750;2023-03-25T08:08:05;99522.94;;;10.17;100.00
30636;BME280;17400;52.392;9.750;2023-03-25T08:10:33;99531.75;;;10.31;100.00
30636;BME280;17400;52.392;9.750;2023-03-25T08:13:01;99528.16;;;10.37;100.00
30636;BME280;17400;52.392;9.750;2023-03-25T08:15:31;99529.88;;;10.31;100.00
30636;BME280;17400;52.392;9.750;2023-03-25T08:17:59;99539.25;;;10.29;100.00
30636;BME280;17400;52.392;9.750;2023-03-25T08:20:27;99534.31;;;10.26;100.00
30636;BME280;17400;52.392;9.750;2023-03-25T08:22:55;99541.81;;;10.24;100.00
30636;BME280;17400;52.392;9.750;2023-03-25T08:25:25;99536.09;;;10.13;100.00
30636;BME280;17400;52.392;9.750;2023-03-25T08:27:53;99540.00;;;10.17;100.00
30636;BME280;17400;52.392;9.750;2023-03-25T08:30:21;99545.84;;;10.14;100.00
30636;BME280;17400;52.392;9.750;2023-03-25T08:32:49;99546.47;;;10.16;100.00
30636;BME280;17400;52.392;9.750;2023-03-25T08:35:20;99537.00;;;10.07;100.00
30636;BME280;17400;52.392;9.750;2023-03-25T08:37:51;99534.44;;;10.12;100.00
30636;BME280;17400;52.392;9.750;2023-03-25T08:40:19;99542.09;;;10.15;100.00
30636;BME280;17400;52.392;9.750;2023-03-25T08:42:48;99539.78;;;10.19;100.00
30636;BME280;17400;52.392;9.750;2023-03-25T08:45:17;99543.69;;;10.23;100.00
30636;BME280;17400;52.392;9.750;2023-03-25T08:47:45;99551.88;;;10.16;100.00
30636;BME280;17400;52.392;9.750;2023-03-25T08:50:13;99551.56;;;10.06;100.00
30636;BME280;17400;52.392;9.750;2023-03-25T08:52:41;99546.75;;;10.08;100.00
30636;BME280;17400;52.392;9.750;2023-03-25T08:55:10;99549.63;;;10.13;100.00
30636;BME280;17400;52.392;9.750;2023-03-25T08:57:38;99549.16;;;10.16;100.00
30636;BME280;17400;52.392;9.750;2023-03-25T09:00:10;99548.94;;;10.18;100.00
30636;BME280;17400;52.392;9.750;2023-03-25T09:02:40;99553.53;;;10.17;100.00
30636;BME280;17400;52.392;9.750;2023-03-25T09:05:08;99540.72;;;10.06;100.00
30636;BME280;17400;52.392;9.750;2023-03-25T09:07:37;99546.75;;;10.08;100.00
30636;BME280;17400;52.392;9.750;2023-03-25T09:10:06;99549.00;;;10.11;100.00
30636;BME280;17400;52.392;9.750;2023-03-25T09:12:34;99548.25;;;10.04;100.00
30636;BME280;17400;52.392;9.750;2023-03-25T09:15:03;99547.94;;;9.94;100.00
30636;BME280;17400;52.392;9.750;2023-03-25T09:17:34;99551.28;;;9.89;100.00
30636;BME280;17400;52.392;9.750;2023-03-25T09:20:03;99551.00;;;9.72;100.00
30636;BME280;17400;52.392;9.750;2023-03-25T09:22:40;99557.63;;;9.76;100.00
30636;BME280;17400;52.392;9.750;2023-03-25T09:25:08;99555.72;;;9.83;100.00
30636;BME280;17400;52.392;9.750;2023-03-25T09:27:36;99552.53;;;9.87;100.00
30636;BME280;17400;52.392;9.750;2023-03-25T09:30:06;99548.09;;;9.99;100.00
30636;BME280;17400;52.392;9.750;2023-03-25T09:32:35;99557.72;;;9.88;100.00
30636;BME280;17400;52.392;9.750;2023-03-25T09:35:04;99543.97;;;9.96;100.00
30636;BME280;17400;52.392;9.750;2023-03-25T09:37:32;99556.47;;;9.91;100.00
30636;BME280;17400;52.392;9.750;2023-03-25T09:40:00;99547.47;;;9.97;100.00
30636;BME280;17400;52.392;9.750;2023-03-25T09:42:42;99553.81;;;9.84;100.00
30636;BME280;17400;52.392;9.750;2023-03-25T09:45:24;99554.84;;;9.90;100.00
30636;BME280;17400;52.392;9.750;2023-03-25T09:47:56;99554.16;;;9.94;100.00
30636;BME280;17400;52.392;9.750;2023-03-25T09:50:28;99548.97;;;9.93;100.00
30636;BME280;17400;52.392;9.750;2023-03-25T09:53:00;99542.69;;;9.99;100.00
30636;BME280;17400;52.392;9.750;2023-03-25T09:55:33;99555.47;;;10.10;100.00
30636;BME280;17400;52.392;9.750;2023-03-25T09:58:22;99557.06;;;10.18;100.00
30636;BME280;17400;52.392;9.750;2023-03-25T10:00:54;99561.81;;;10.23;100.00
30636;BME280;17400;52.392;9.750;2023-03-25T10:03:31;99552.63;;;10.24;100.00
30636;BME280;17400;52.392;9.750;2023-03-25T10:06:11;99546.84;;;10.20;100.00
30636;BME280;17400;52.392;9.750;2023-03-25T10:08:50;99543.00;;;10.28;100.00
30636;BME280;17400;52.392;9.750;2023-03-25T10:11:25;99526.69;;;10.41;100.00
30636;BME280;17400;52.392;9.750;2023-03-25T10:14:00;99535.69;;;10.54;100.00
30636;BME280;17400;52.392;9.750;2023-03-25T10:16:38;99542.06;;;10.78;100.00
30636;BME280;17400;52.392;9.750;2023-03-25T10:19:34;99539.13;;;10.79;100.00
30636;BME280;17400;52.392;9.750;2023-03-25T10:22:08;99538.69;;;10.82;100.00
30636;BME280;17400;52.392;9.750;2023-03-25T10:24:40;99549.44;;;10.89;100.00
30636;BME280;17400;52.392;9.750;2023-03-25T10:27:18;99544.84;;;10.90;100.00
30636;BME280;17400;52.392;9.750;2023-03-25T10:29:52;99526.03;;;10.95;100.00
30636;BME280;17400;52.392;9.750;2023-03-25T10:32:30;99534.63;;;10.92;98.23
30636;BME280;17400;52.392;9.750;2023-03-25T10:35:02;99537.69;;;10.95;96.56
30636;BME280;17400;52.392;9.750;2023-03-25T10:37:33;99537.28;;;11.10;97.38
30636;BME280;17400;52.392;9.750;2023-03-25T10:40:13;99527.81;;;11.31;96.91
30636;BME280;17400;52.392;9.750;2023-03-25T10:42:49;99532.28;;;11.38;94.36
30636;BME280;17400;52.392;9.750;2023-03-25T10:45:23;99532.09;;;11.39;95.22
30636;BME280;17400;52.392;9.750;2023-03-25T10:47:53;99518.19;;;11.47;89.73
30636;BME280;17400;52.392;9.750;2023-03-25T10:50:26;99519.13;;;11.41;87.66
30636;BME280;17400;52.392;9.750;2023-03-25T10:52:54;99525.47;;;11.35;88.46
30636;BME280;17400;52.392;9.750;2023-03-25T10:55:24;99524.41;;;11.36;89.50
30636;BME280;17400;52.392;9.750;2023-03-25T10:57:55;99525.25;;;11.37;88.83
30636;BME280;17400;52.392;9.750;2023-03-25T11:00:23;99524.41;;;11.36;88.25
30636;BME280;17400;52.392;9.750;2023-03-25T11:02:52;99526.50;;;11.22;86.29
30636;BME280;17400;52.392;9.750;2023-03-25T11:05:26;99523.13;;;11.08;83.31
30636;BME280;17400;52.392;9.750;2023-03-25T11:07:59;99527.88;;;11.13;81.75
30636;BME280;17400;52.392;9.750;2023-03-25T11:10:47;99520.47;;;11.20;82.62
30636;BME280;17400;52.392;9.750;2023-03-25T11:13:17;99515.91;;;11.21;82.17
30636;BME280;17400;52.392;9.750;2023-03-25T11:15:47;99520.81;;;11.12;81.76
30636;BME280;17400;52.392;9.750;2023-03-25T11:18:20;99514.53;;;10.99;81.51
30636;BME280;17400;52.392;9.750;2023-03-25T11:20:53;99521.28;;;11.09;82.59
30636;BME280;17400;52.392;9.750;2023-03-25T11:23:25;99517.56;;;11.03;80.27
30636;BME280;17400;52.392;9.750;2023-03-25T11:26:01;99519.25;;;11.04;80.59
30636;BME280;17400;52.392;9.750;2023-03-25T11:28:35;99516.09;;;11.19;81.03
30636;BME280;17400;52.392;9.750;2023-03-25T11:31:07;99517.66;;;11.27;81.44
30636;BME280;17400;52.392;9.750;2023-03-25T11:33:35;99522.50;;;11.25;80.50
30636;BME280;17400;52.392;9.750;2023-03-25T11:36:28;99508.81;;;11.20;81.35
30636;BME280;17400;52.392;9.750;2023-03-25T11:38:58;99515.28;;;11.19;81.05
30636;BME280;17400;52.392;9.750;2023-03-25T11:41:28;99503.84;;;11.16;82.02
30636;BME280;17400;52.392;9.750;2023-03-25T11:43:57;99495.28;;;11.20;81.87
30636;BME280;17400;52.392;9.750;2023-03-25T11:46:27;99501.84;;;11.12;81.96
30636;BME280;17400;52.392;9.750;2023-03-25T11:48:57;99503.75;;;11.11;82.84
30636;BME280;17400;52.392;9.750;2023-03-25T11:51:35;99502.78;;;11.17;83.19
30636;BME280;17400;52.392;9.750;2023-03-25T11:54:10;99508.22;;;11.17;83.30
30636;BME280;17400;52.392;9.750;2023-03-25T11:56:40;99513.19;;;11.21;83.78
30636;BME280;17400;52.392;9.750;2023-03-25T11:59:17;99508.22;;;11.17;84.86
30636;BME280;17400;52.392;9.750;2023-03-25T12:01:49;99507.63;;;11.15;86.59
30636;BME280;17400;52.392;9.750;2023-03-25T12:04:19;99509.34;;;11.10;87.40
30636;BME280;17400;52.392;9.750;2023-03-25T12:06:54;99509.59;;;11.08;87.81
30636;BME280;17400;52.392;9.750;2023-03-25T12:09:24;99514.69;;;11.16;88.69
30636;BME280;17400;52.392;9.750;2023-03-25T12:12:13;99508.34;;;11.23;88.81
30636;BME280;17400;52.392;9.750;2023-03-25T12:14:58;99509.53;;;11.27;88.87
30636;BME280;17400;52.392;9.750;2023-03-25T12:17:40;99489.28;;;11.29;87.71
30636;BME280;17400;52.392;9.750;2023-03-25T12:20:21;99488.72;;;11.39;88.01
30636;BME280;17400;52.392;9.750;2023-03-25T12:22:59;99490.38;;;11.52;86.84
30636;BME280;17400;52.392;9.750;2023-03-25T12:25:45;99483.09;;;11.53;87.07
30636;BME280;17400;52.392;9.750;2023-03-25T12:28:36;99482.03;;;11.54;86.87
30636;BME280;17400;52.392;9.750;2023-03-25T12:31:19;99483.75;;;11.36;85.72
30636;BME280;17400;52.392;9.750;2023-03-25T12:33:57;99484.44;;;11.20;87.62
30636;BME280;17400;52.392;9.750;2023-03-25T12:36:39;99488.19;;;11.19;89.25
30636;BME280;17400;52.392;9.750;2023-03-25T12:39:26;99501.66;;;11.25;90.12
30636;BME280;17400;52.392;9.750;2023-03-25T12:42:27;99496.97;;;11.32;90.18
30636;BME280;17400;52.392;9.750;2023-03-25T12:45:18;99483.31;;;11.39;91.31
30636;BME280;17400;52.392;9.750;2023-03-25T12:47:54;99480.00;;;11.37;91.87
30636;BME280;17400;52.392;9.750;2023-03-25T12:50:31;99486.03;;;11.39;91.55
30636;BME280;17400;52.392;9.750;2023-03-25T12:53:17;99492.66;;;11.55;91.22
30636;BME280;17400;52.392;9.750;2023-03-25T12:55:57;99477.44;;;11.66;90.11
30636;BME280;17400;52.392;9.750;2023-03-25T12:58:41;99471.56;;;11.81;88.03
30636;BME280;17400;52.392;9.750;2023-03-25T13:01:20;99468.06;;;12.04;86.62
30636;BME280;17400;52.392;9.750;2023-03-25T13:04:17;99474.94;;;12.36;82.98
30636;BME280;17400;52.392;9.750;2023-03-25T13:06:58;99468.31;;;12.43;82.48
30636;BME280;17400;52.392;9.750;2023-03-25T13:09:29;99471.94;;;12.61;85.75
30636;BME280;17400;52.392;9.750;2023-03-25T13:12:04;99466.28;;;12.91;81.35
30636;BME280;17400;52.392;9.750;2023-03-25T13:14:38;99475.13;;;13.15;80.03
30636;BME280;17400;52.392;9.750;2023-03-25T13:17:11;99464.53;;;12.85;78.44
30636;BME280;17400;52.392;9.750;2023-03-25T13:19:44;99470.56;;;12.46;81.31
30636;BME280;17400;52.392;9.750;2023-03-25T13:22:17;99463.53;;;12.22;82.54
30636;BME280;17400;52.392;9.750;2023-03-25T13:24:52;99472.38;;;12.05;83.18